createdAt,value
2022-10-30T00:00:44.624Z,0.00
2022-10-30T00:01:44.692Z,0.00
2022-10-30T00:02:44.655Z,0.00
2022-10-30T00:03:44.549Z,0.00
2022-10-30T00:04:44.601Z,0.00
2022-10-30T00:05:44.541Z,0.00
2022-10-30T00:06:44.560Z,0.00
2022-10-30T00:07:44.507Z,0.00
2022-10-30T00:08:45.444Z,0.00
2022-10-30T00:09:44.483Z,0.00
2022-10-30T00:10:44.470Z,0.00
2022-10-30T00:11:44.474Z,0.00
2022-10-30T00:12:44.663Z,0.00
2022-10-30T00:13:44.443Z,0.00
2022-10-30T00:14:44.436Z,0.00
2022-10-30T00:15:44.423Z,0.00
2022-10-30T00:16:44.420Z,0.00
2022-10-30T00:17:44.415Z,0.00
2022-10-30T00:18:44.386Z,0.00
2022-10-30T00:19:44.374Z,0.00
2022-10-30T00:20:44.359Z,0.00
2022-10-30T00:21:44.376Z,0.00
2022-10-30T00:22:44.348Z,0.00
2022-10-30T00:23:44.383Z,0.00
2022-10-30T00:24:44.327Z,0.00
2022-10-30T00:25:44.327Z,0.00
2022-10-30T00:26:45.251Z,0.00
2022-10-30T00:27:44.278Z,0.00
2022-10-30T00:28:44.279Z,0.00
2022-10-30T00:29:44.320Z,0.00
2022-10-30T00:30:44.251Z,0.00
2022-10-30T00:31:44.254Z,0.00
2022-10-30T00:32:44.253Z,0.00
2022-10-30T00:33:44.220Z,0.00
2022-10-30T00:34:44.222Z,0.00
2022-10-30T00:35:44.361Z,0.00
2022-10-30T00:36:44.187Z,0.00
2022-10-30T00:37:44.192Z,0.00
2022-10-30T00:38:44.180Z,0.00
2022-10-30T00:39:44.152Z,0.00
2022-10-30T00:40:44.153Z,0.00
2022-10-30T00:41:44.122Z,0.00
2022-10-30T00:42:44.142Z,0.00
2022-10-30T00:43:44.124Z,0.00
2022-10-30T00:44:44.091Z,0.00
2022-10-30T00:45:44.075Z,0.00
2022-10-30T00:46:44.066Z,0.00
2022-10-30T00:47:44.055Z,0.00
2022-10-30T00:48:44.094Z,0.00
2022-10-30T00:49:44.037Z,0.00
2022-10-30T00:50:44.050Z,0.00
2022-10-30T00:51:44.009Z,0.00
2022-10-30T00:52:44.989Z,0.00
2022-10-30T00:53:43.978Z,0.00
2022-10-30T00:54:44.009Z,0.00
2022-10-30T00:55:43.978Z,0.00
2022-10-30T00:56:44.036Z,0.00
2022-10-30T00:57:43.986Z,0.00
2022-10-30T00:58:43.938Z,0.00
2022-10-30T00:59:43.922Z,0.00
2022-10-30T01:00:44.832Z,0.00
2022-10-30T01:01:43.994Z,0.00
2022-10-30T01:02:43.965Z,0.00
2022-10-30T01:03:43.885Z,0.00
2022-10-30T01:04:43.882Z,0.00
2022-10-30T01:05:43.841Z,0.00
2022-10-30T01:06:43.851Z,0.00
2022-10-30T01:07:43.828Z,0.00
2022-10-30T01:08:43.869Z,0.00
2022-10-30T01:09:43.825Z,0.00
2022-10-30T01:10:43.791Z,0.00
2022-10-30T01:11:43.805Z,0.00
2022-10-30T01:12:43.782Z,0.00
2022-10-30T01:13:43.762Z,0.00
2022-10-30T01:14:43.744Z,0.00
2022-10-30T01:15:43.749Z,0.00
2022-10-30T01:16:43.718Z,0.00
2022-10-30T01:17:43.739Z,0.00
2022-10-30T01:18:43.718Z,0.00
2022-10-30T01:19:43.697Z,0.00
2022-10-30T01:20:44.637Z,0.00
2022-10-30T01:21:43.707Z,0.00
2022-10-30T01:22:43.655Z,0.00
2022-10-30T01:23:43.636Z,0.00
2022-10-30T01:24:43.645Z,0.00
2022-10-30T01:25:43.630Z,0.00
2022-10-30T01:26:43.659Z,0.00
2022-10-30T01:27:43.587Z,0.00
2022-10-30T01:28:43.595Z,0.00
2022-10-30T01:29:43.588Z,0.00
2022-10-30T01:30:43.558Z,0.00
2022-10-30T01:31:43.567Z,0.00
2022-10-30T01:32:43.585Z,0.00
2022-10-30T01:33:43.520Z,0.00
2022-10-30T01:35:43.535Z,0.00
2022-10-30T01:36:43.501Z,0.00
2022-10-30T01:37:44.445Z,0.00
2022-10-30T01:38:43.476Z,0.00
2022-10-30T01:39:43.498Z,0.00
2022-10-30T01:40:43.458Z,0.00
2022-10-30T01:41:43.441Z,0.00
2022-10-30T01:42:43.451Z,0.00
2022-10-30T01:43:43.437Z,0.00
2022-10-30T01:44:43.434Z,0.00
2022-10-30T01:45:43.404Z,0.00
2022-10-30T01:46:43.392Z,0.00
2022-10-30T01:47:43.403Z,0.00
2022-10-30T01:48:43.384Z,0.00
2022-10-30T01:49:43.350Z,0.00
2022-10-30T01:50:43.337Z,0.00
2022-10-30T01:51:43.336Z,0.00
2022-10-30T01:52:43.356Z,0.00
2022-10-30T01:53:43.307Z,0.00
2022-10-30T01:54:43.302Z,0.00
2022-10-30T01:55:43.288Z,0.00
2022-10-30T01:56:43.299Z,0.00
2022-10-30T01:57:43.281Z,0.00
2022-10-30T01:58:43.256Z,0.00
2022-10-30T01:59:43.250Z,0.00
2022-10-30T02:00:43.272Z,0.00
2022-10-30T02:01:43.487Z,0.00
2022-10-30T02:02:43.351Z,0.00
2022-10-30T02:03:43.196Z,0.00
2022-10-30T02:04:43.186Z,0.00
2022-10-30T02:05:43.210Z,0.00
2022-10-30T02:06:44.157Z,0.00
2022-10-30T02:07:43.170Z,0.00
2022-10-30T02:08:43.137Z,0.00
2022-10-30T02:09:43.127Z,0.00
2022-10-30T02:10:43.149Z,0.00
2022-10-30T02:11:43.140Z,0.00
2022-10-30T02:12:43.098Z,0.00
2022-10-30T02:13:43.092Z,0.00
2022-10-30T02:14:43.097Z,0.00
2022-10-30T02:15:43.062Z,0.00
2022-10-30T02:16:43.070Z,0.00
2022-10-30T02:17:43.044Z,0.00
2022-10-30T02:18:43.131Z,0.00
2022-10-30T02:19:43.012Z,0.00
2022-10-30T02:20:43.974Z,0.00
2022-10-30T02:21:43.016Z,0.00
2022-10-30T02:22:43.065Z,0.00
2022-10-30T02:23:43.019Z,0.00
2022-10-30T02:24:42.969Z,0.00
2022-10-30T02:25:42.955Z,0.00
2022-10-30T02:26:42.935Z,0.00
2022-10-30T02:27:42.932Z,0.00
2022-10-30T02:28:42.934Z,0.00
2022-10-30T02:29:42.952Z,0.00
2022-10-30T02:30:42.896Z,0.00
2022-10-30T02:31:42.874Z,0.00
2022-10-30T02:32:42.889Z,0.00
2022-10-30T02:33:42.889Z,0.00
2022-10-30T02:34:42.869Z,0.00
2022-10-30T02:35:42.874Z,0.00
2022-10-30T02:36:42.828Z,0.00
2022-10-30T02:37:42.810Z,0.00
2022-10-30T02:38:42.799Z,0.00
2022-10-30T02:39:42.803Z,0.00
2022-10-30T02:40:42.787Z,0.00
2022-10-30T02:41:42.795Z,0.00
2022-10-30T02:42:42.764Z,0.00
2022-10-30T02:43:42.746Z,0.00
2022-10-30T02:44:42.746Z,0.00
2022-10-30T02:45:42.720Z,0.00
2022-10-30T02:46:42.750Z,0.00
2022-10-30T02:47:42.723Z,0.00
2022-10-30T02:48:42.704Z,0.00
2022-10-30T02:49:42.683Z,0.00
2022-10-30T02:50:42.663Z,0.00
2022-10-30T02:51:42.657Z,0.00
2022-10-30T02:52:42.673Z,0.00
2022-10-30T02:53:42.682Z,0.00
2022-10-30T02:54:42.631Z,0.00
2022-10-30T02:55:42.600Z,0.00
2022-10-30T02:56:42.594Z,0.00
2022-10-30T02:57:42.585Z,0.00
2022-10-30T02:58:42.839Z,0.00
2022-10-30T02:59:42.600Z,0.00
2022-10-30T03:00:42.559Z,0.00
2022-10-30T03:01:42.653Z,0.00
2022-10-30T03:02:42.682Z,0.00
2022-10-30T03:03:42.523Z,0.00
2022-10-30T03:04:42.548Z,0.00
2022-10-30T03:05:42.500Z,0.00
2022-10-30T03:06:42.479Z,0.00
2022-10-30T03:07:42.499Z,0.00
2022-10-30T03:08:42.484Z,0.00
2022-10-30T03:09:42.458Z,0.00
2022-10-30T03:10:42.449Z,0.00
2022-10-30T03:11:42.469Z,0.00
2022-10-30T03:12:42.442Z,0.00
2022-10-30T03:13:42.427Z,0.00
2022-10-30T03:14:42.396Z,0.00
2022-10-30T03:15:42.400Z,0.00
2022-10-30T03:16:42.451Z,0.00
2022-10-30T03:17:42.443Z,0.00
2022-10-30T03:18:42.363Z,0.00
2022-10-30T03:19:42.346Z,0.00
2022-10-30T03:20:42.345Z,0.00
2022-10-30T03:21:42.325Z,0.00
2022-10-30T03:22:42.311Z,0.00
2022-10-30T03:23:42.329Z,0.00
2022-10-30T03:24:42.674Z,0.00
2022-10-30T03:25:42.295Z,0.00
2022-10-30T03:26:42.263Z,0.00
2022-10-30T03:27:42.253Z,0.00
2022-10-30T03:28:42.284Z,0.00
2022-10-30T03:29:42.257Z,0.00
2022-10-30T03:30:42.215Z,0.00
2022-10-30T03:31:42.216Z,0.00
2022-10-30T03:32:42.197Z,0.00
2022-10-30T03:33:42.207Z,0.00
2022-10-30T03:34:42.203Z,0.00
2022-10-30T03:35:43.116Z,0.00
2022-10-30T03:36:42.169Z,0.00
2022-10-30T03:37:42.127Z,0.00
2022-10-30T03:38:42.130Z,0.00
2022-10-30T03:39:42.188Z,0.00
2022-10-30T03:40:42.103Z,0.00
2022-10-30T03:41:42.098Z,0.00
2022-10-30T03:42:42.088Z,0.00
2022-10-30T03:43:42.069Z,0.00
2022-10-30T03:44:42.066Z,0.00
2022-10-30T03:45:42.078Z,0.00
2022-10-30T03:46:42.051Z,0.00
2022-10-30T03:47:42.030Z,0.00
2022-10-30T03:48:42.040Z,0.00
2022-10-30T03:49:42.026Z,0.00
2022-10-30T03:50:41.983Z,0.00
2022-10-30T03:51:41.992Z,0.00
2022-10-30T03:52:41.973Z,0.00
2022-10-30T03:53:41.961Z,0.00
2022-10-30T03:54:41.973Z,0.00
2022-10-30T03:55:41.934Z,0.00
2022-10-30T03:56:41.924Z,0.00
2022-10-30T03:57:41.941Z,0.00
2022-10-30T03:58:41.903Z,0.00
2022-10-30T03:59:41.946Z,0.00
2022-10-30T04:00:41.890Z,0.00
2022-10-30T04:01:42.102Z,0.00
2022-10-30T04:02:41.887Z,0.00
2022-10-30T04:03:41.866Z,0.00
2022-10-30T04:04:41.889Z,0.00
2022-10-30T04:05:41.838Z,0.00
2022-10-30T04:06:41.887Z,0.00
2022-10-30T04:07:41.802Z,0.00
2022-10-30T04:08:41.790Z,0.00
2022-10-30T04:09:41.798Z,0.00
2022-10-30T04:10:41.870Z,0.00
2022-10-30T04:11:41.769Z,0.00
2022-10-30T04:12:41.769Z,0.00
2022-10-30T04:13:41.738Z,0.00
2022-10-30T04:14:41.724Z,0.00
2022-10-30T04:15:41.750Z,0.00
2022-10-30T04:16:41.700Z,0.00
2022-10-30T04:17:41.704Z,0.00
2022-10-30T04:18:41.697Z,0.00
2022-10-30T04:19:41.682Z,0.00
2022-10-30T04:20:41.660Z,0.00
2022-10-30T04:21:41.689Z,0.00
2022-10-30T04:22:41.639Z,0.00
2022-10-30T04:23:41.640Z,0.00
2022-10-30T04:24:41.632Z,0.00
2022-10-30T04:25:41.671Z,0.00
2022-10-30T04:26:41.641Z,0.00
2022-10-30T04:27:41.587Z,0.00
2022-10-30T04:28:41.571Z,0.00
2022-10-30T04:29:41.567Z,0.00
2022-10-30T04:30:41.572Z,0.00
2022-10-30T04:31:41.536Z,0.00
2022-10-30T04:32:41.543Z,0.00
2022-10-30T04:33:41.509Z,0.00
2022-10-30T04:34:41.513Z,0.00
2022-10-30T04:35:41.499Z,0.00
2022-10-30T04:36:41.481Z,0.00
2022-10-30T04:37:41.506Z,0.00
2022-10-30T04:38:41.468Z,0.00
2022-10-30T04:39:45.459Z,0.00
2022-10-30T04:40:42.441Z,0.00
2022-10-30T04:41:41.457Z,0.00
2022-10-30T04:42:41.418Z,0.00
2022-10-30T04:43:41.443Z,0.00
2022-10-30T04:44:41.434Z,0.00
2022-10-30T04:45:41.378Z,0.00
2022-10-30T04:46:41.382Z,0.00
2022-10-30T04:47:41.391Z,0.00
2022-10-30T04:48:41.338Z,0.00
2022-10-30T04:49:41.329Z,0.00
2022-10-30T04:50:41.323Z,0.00
2022-10-30T04:51:41.309Z,0.00
2022-10-30T04:52:41.328Z,0.00
2022-10-30T04:53:41.310Z,0.00
2022-10-30T04:54:41.275Z,0.00
2022-10-30T04:55:41.281Z,0.00
2022-10-30T04:56:41.258Z,0.00
2022-10-30T04:57:41.231Z,0.00
2022-10-30T04:58:41.283Z,0.00
2022-10-30T04:59:41.222Z,0.00
2022-10-30T05:00:41.221Z,0.00
2022-10-30T05:01:41.300Z,0.00
2022-10-30T05:02:41.361Z,0.00
2022-10-30T05:03:42.043Z,0.00
2022-10-30T05:04:41.230Z,0.00
2022-10-30T05:05:41.263Z,0.00
2022-10-30T05:06:41.139Z,0.00
2022-10-30T05:07:41.125Z,0.00
2022-10-30T05:08:41.134Z,0.00
2022-10-30T05:09:41.163Z,0.00
2022-10-30T05:10:41.110Z,0.00
2022-10-30T05:11:41.084Z,0.00
2022-10-30T05:12:41.079Z,0.00
2022-10-30T05:13:41.076Z,0.00
2022-10-30T05:14:41.047Z,0.00
2022-10-30T05:15:41.057Z,0.00
2022-10-30T05:16:41.043Z,0.00
2022-10-30T05:17:41.073Z,0.00
2022-10-30T05:18:41.001Z,0.00
2022-10-30T05:19:41.017Z,0.00
2022-10-30T05:20:41.008Z,0.00
2022-10-30T05:21:40.996Z,0.00
2022-10-30T05:22:40.978Z,0.00
2022-10-30T05:23:41.098Z,0.00
2022-10-30T05:24:40.953Z,0.00
2022-10-30T05:25:41.995Z,0.00
2022-10-30T05:26:40.907Z,0.00
2022-10-30T05:27:40.968Z,0.00
2022-10-30T05:28:40.932Z,0.00
2022-10-30T05:29:40.978Z,0.00
2022-10-30T05:30:40.889Z,0.00
2022-10-30T05:31:40.936Z,0.00
2022-10-30T05:32:40.880Z,0.00
2022-10-30T05:33:40.999Z,0.00
2022-10-30T05:34:40.834Z,0.00
2022-10-30T05:35:41.875Z,0.00
2022-10-30T05:36:40.797Z,0.00
2022-10-30T05:37:40.790Z,0.00
2022-10-30T05:38:40.802Z,0.00
2022-10-30T05:39:40.774Z,0.00
2022-10-30T05:40:40.752Z,0.00
2022-10-30T05:41:40.752Z,0.00
2022-10-30T05:42:40.731Z,0.00
2022-10-30T05:43:40.781Z,0.00
2022-10-30T05:44:59.823Z,0.00
2022-10-30T05:45:41.745Z,0.00
2022-10-30T05:46:40.704Z,0.00
2022-10-30T05:47:40.697Z,0.00
2022-10-30T05:48:40.697Z,0.00
2022-10-30T05:49:40.653Z,0.00
2022-10-30T05:50:40.652Z,0.00
2022-10-30T05:51:40.802Z,0.00
2022-10-30T05:52:40.622Z,0.00
2022-10-30T05:53:40.605Z,0.00
2022-10-30T05:54:40.607Z,0.00
2022-10-30T05:55:40.587Z,0.00
2022-10-30T05:56:40.608Z,0.00
2022-10-30T05:57:40.567Z,0.00
2022-10-30T05:58:40.558Z,0.00
2022-10-30T05:59:40.589Z,0.00
2022-10-30T06:00:40.532Z,4.00
2022-10-30T06:01:40.654Z,4.00
2022-10-30T06:02:40.593Z,4.00
2022-10-30T06:03:40.542Z,0.00
2022-10-30T06:04:40.503Z,4.00
2022-10-30T06:05:40.483Z,4.00
2022-10-30T06:06:40.490Z,4.00
2022-10-30T06:07:40.454Z,8.00
2022-10-30T06:08:40.475Z,8.00
2022-10-30T06:09:40.433Z,8.00
2022-10-30T06:10:40.404Z,12.00
2022-10-30T06:11:40.438Z,12.00
2022-10-30T06:12:40.414Z,12.00
2022-10-30T06:13:40.399Z,16.00
2022-10-30T06:14:40.375Z,20.00
2022-10-30T06:15:40.371Z,20.00
2022-10-30T06:16:40.360Z,20.00
2022-10-30T06:17:40.368Z,24.00
2022-10-30T06:18:40.369Z,28.00
2022-10-30T06:19:40.353Z,32.00
2022-10-30T06:20:40.348Z,36.00
2022-10-30T06:21:40.348Z,36.00
2022-10-30T06:22:40.298Z,40.00
2022-10-30T06:23:40.333Z,44.00
2022-10-30T06:24:40.296Z,52.00
2022-10-30T06:25:41.494Z,60.00
2022-10-30T06:26:40.272Z,68.00
2022-10-30T06:27:40.236Z,76.00
2022-10-30T06:28:40.250Z,88.00
2022-10-30T06:29:40.258Z,96.00
2022-10-30T06:30:40.252Z,104.00
2022-10-30T06:31:40.210Z,104.00
2022-10-30T06:32:40.184Z,108.00
2022-10-30T06:33:40.174Z,112.00
2022-10-30T06:34:40.178Z,116.00
2022-10-30T06:35:40.151Z,120.00
2022-10-30T06:36:41.145Z,128.00
2022-10-30T06:37:40.130Z,140.00
2022-10-30T06:38:40.108Z,148.00
2022-10-30T06:39:40.093Z,160.00
2022-10-30T06:40:40.117Z,172.00
2022-10-30T06:41:40.102Z,188.00
2022-10-30T06:42:40.079Z,196.00
2022-10-30T06:43:40.107Z,212.00
2022-10-30T06:44:40.097Z,216.00
2022-10-30T06:45:40.044Z,224.00
2022-10-30T06:46:40.033Z,228.00
2022-10-30T06:47:40.004Z,232.00
2022-10-30T06:48:40.073Z,232.00
2022-10-30T06:49:40.008Z,240.00
2022-10-30T06:50:40.026Z,240.00
2022-10-30T06:51:39.988Z,244.00
2022-10-30T06:52:39.957Z,252.00
2022-10-30T06:53:39.941Z,264.00
2022-10-30T06:54:39.934Z,272.00
2022-10-30T06:55:39.935Z,284.00
2022-10-30T06:56:40.014Z,292.00
2022-10-30T06:57:39.912Z,300.00
2022-10-30T06:58:39.883Z,304.00
2022-10-30T06:59:39.886Z,316.00
2022-10-30T07:00:39.941Z,324.00
2022-10-30T07:01:39.931Z,332.00
2022-10-30T07:02:39.914Z,340.00
2022-10-30T07:03:39.981Z,352.00
2022-10-30T07:04:39.832Z,360.00
2022-10-30T07:05:40.010Z,372.00
2022-10-30T07:06:39.797Z,376.00
2022-10-30T07:07:39.786Z,384.00
2022-10-30T07:08:39.832Z,388.00
2022-10-30T07:09:39.765Z,392.00
2022-10-30T07:10:39.769Z,396.00
2022-10-30T07:11:39.743Z,400.00
2022-10-30T07:12:39.750Z,400.00
2022-10-30T07:13:39.730Z,404.00
2022-10-30T07:14:39.730Z,408.00
2022-10-30T07:15:40.007Z,416.00
2022-10-30T07:16:39.720Z,424.00
2022-10-30T07:17:39.683Z,428.00
2022-10-30T07:18:39.661Z,432.00
2022-10-30T07:19:39.652Z,432.00
2022-10-30T07:20:39.743Z,432.00
2022-10-30T07:21:39.626Z,436.00
2022-10-30T07:22:39.646Z,432.00
2022-10-30T07:23:39.595Z,444.00
2022-10-30T07:24:39.620Z,448.00
2022-10-30T07:25:39.610Z,456.00
2022-10-30T07:26:39.625Z,456.00
2022-10-30T07:27:39.583Z,464.00
2022-10-30T07:28:39.555Z,472.00
2022-10-30T07:29:39.551Z,484.00
2022-10-30T07:30:39.545Z,492.00
2022-10-30T07:31:42.372Z,500.00
2022-10-30T07:32:40.555Z,504.00
2022-10-30T07:33:39.502Z,512.00
2022-10-30T07:34:39.485Z,524.00
2022-10-30T07:35:39.480Z,536.00
2022-10-30T07:36:39.458Z,552.00
2022-10-30T07:37:39.475Z,568.00
2022-10-30T07:38:39.490Z,592.00
2022-10-30T07:39:39.435Z,612.00
2022-10-30T07:40:39.430Z,632.00
2022-10-30T07:41:39.409Z,644.00
2022-10-30T07:42:39.418Z,656.00
2022-10-30T07:43:39.423Z,660.00
2022-10-30T07:44:39.406Z,664.00
2022-10-30T07:45:39.357Z,660.00
2022-10-30T07:46:39.411Z,664.00
2022-10-30T07:47:39.349Z,664.00
2022-10-30T07:48:39.397Z,660.00
2022-10-30T07:49:39.332Z,664.00
2022-10-30T07:50:39.354Z,672.00
2022-10-30T07:51:39.342Z,680.00
2022-10-30T07:52:39.279Z,700.00
2022-10-30T07:53:39.285Z,716.00
2022-10-30T07:54:39.279Z,736.00
2022-10-30T07:55:39.241Z,752.00
2022-10-30T07:56:39.265Z,764.00
2022-10-30T07:57:39.272Z,776.00
2022-10-30T07:58:45.084Z,804.00
2022-10-30T07:59:40.247Z,800.00
2022-10-30T08:00:39.225Z,792.00
2022-10-30T08:01:39.278Z,780.00
2022-10-30T08:02:39.294Z,768.00
2022-10-30T08:03:39.156Z,752.00
2022-10-30T08:04:39.193Z,736.00
2022-10-30T08:05:39.314Z,728.00
2022-10-30T08:06:39.133Z,728.00
2022-10-30T08:07:39.113Z,728.00
2022-10-30T08:08:43.161Z,732.00
2022-10-30T08:09:39.104Z,744.00
2022-10-30T08:10:39.107Z,752.00
2022-10-30T08:11:39.077Z,760.00
2022-10-30T08:12:39.095Z,760.00
2022-10-30T08:13:39.058Z,764.00
2022-10-30T08:14:39.051Z,764.00
2022-10-30T08:15:39.017Z,764.00
2022-10-30T08:16:39.049Z,756.00
2022-10-30T08:17:39.017Z,756.00
2022-10-30T08:18:39.025Z,756.00
2022-10-30T08:19:39.007Z,768.00
2022-10-30T08:20:39.682Z,776.00
2022-10-30T08:21:39.024Z,784.00
2022-10-30T08:22:39.141Z,800.00
2022-10-30T08:23:39.878Z,812.00
2022-10-30T08:24:38.920Z,816.00
2022-10-30T08:25:38.917Z,820.00
2022-10-30T08:26:38.920Z,808.00
2022-10-30T08:27:38.891Z,800.00
2022-10-30T08:28:38.907Z,776.00
2022-10-30T08:29:38.869Z,784.00
2022-10-30T08:30:38.857Z,812.00
2022-10-30T08:31:38.875Z,828.00
2022-10-30T08:32:38.829Z,852.00
2022-10-30T08:33:38.876Z,856.00
2022-10-30T08:34:39.277Z,856.00
2022-10-30T08:35:38.816Z,860.00
2022-10-30T08:36:38.795Z,856.00
2022-10-30T08:37:38.893Z,860.00
2022-10-30T08:38:38.773Z,864.00
2022-10-30T08:39:38.780Z,880.00
2022-10-30T08:40:38.745Z,900.00
2022-10-30T08:41:38.726Z,928.00
2022-10-30T08:42:38.720Z,968.00
2022-10-30T08:43:38.733Z,1016.00
2022-10-30T08:44:38.686Z,1048.00
2022-10-30T08:45:38.718Z,1068.00
2022-10-30T08:46:38.703Z,1072.00
2022-10-30T08:47:38.649Z,1056.00
2022-10-30T08:48:38.659Z,1028.00
2022-10-30T08:49:38.656Z,984.00
2022-10-30T08:50:38.672Z,948.00
2022-10-30T08:51:38.624Z,924.00
2022-10-30T08:52:38.644Z,900.00
2022-10-30T08:53:38.627Z,892.00
2022-10-30T08:54:38.610Z,900.00
2022-10-30T08:55:38.569Z,920.00
2022-10-30T08:56:38.554Z,936.00
2022-10-30T08:57:38.557Z,952.00
2022-10-30T08:58:39.587Z,968.00
2022-10-30T08:59:38.558Z,980.00
2022-10-30T09:00:38.558Z,992.00
2022-10-30T09:01:38.623Z,1008.00
2022-10-30T09:02:38.607Z,1024.00
2022-10-30T09:03:38.475Z,1032.00
2022-10-30T09:04:38.487Z,1052.00
2022-10-30T09:05:38.543Z,1068.00
2022-10-30T09:06:38.500Z,1076.00
2022-10-30T09:07:38.527Z,1096.00
2022-10-30T09:08:38.542Z,1108.00
2022-10-30T09:09:38.422Z,1124.00
2022-10-30T09:10:38.414Z,1140.00
2022-10-30T09:11:38.452Z,1148.00
2022-10-30T09:12:38.479Z,1160.00
2022-10-30T09:13:38.505Z,1164.00
2022-10-30T09:14:38.419Z,1160.00
2022-10-30T09:15:38.549Z,1144.00
2022-10-30T09:16:38.343Z,1124.00
2022-10-30T09:17:38.348Z,1112.00
2022-10-30T09:18:38.354Z,1080.00
2022-10-30T09:19:38.509Z,1084.00
2022-10-30T09:20:38.295Z,1076.00
2022-10-30T09:21:38.286Z,1076.00
2022-10-30T09:22:38.267Z,1076.00
2022-10-30T09:23:38.245Z,1084.00
2022-10-30T09:24:38.256Z,1100.00
2022-10-30T09:25:38.231Z,1104.00
2022-10-30T09:26:38.253Z,1112.00
2022-10-30T09:27:38.207Z,1124.00
2022-10-30T09:28:38.208Z,1128.00
2022-10-30T09:29:38.191Z,1144.00
2022-10-30T09:30:38.171Z,1140.00
2022-10-30T09:31:38.154Z,1160.00
2022-10-30T09:32:38.206Z,1188.00
2022-10-30T09:33:38.135Z,1204.00
2022-10-30T09:34:38.131Z,1232.00
2022-10-30T09:35:38.119Z,1264.00
2022-10-30T09:36:38.111Z,1280.00
2022-10-30T09:37:38.110Z,1296.00
2022-10-30T09:38:38.120Z,1304.00
2022-10-30T09:39:38.091Z,1316.00
2022-10-30T09:40:38.065Z,1312.00
2022-10-30T09:41:38.055Z,1312.00
2022-10-30T09:42:38.072Z,1300.00
2022-10-30T09:43:38.044Z,1296.00
2022-10-30T09:44:38.034Z,1292.00
2022-10-30T09:45:38.013Z,1276.00
2022-10-30T09:46:38.036Z,1256.00
2022-10-30T09:47:38.010Z,1236.00
2022-10-30T09:48:37.998Z,1228.00
2022-10-30T09:49:38.003Z,1200.00
2022-10-30T09:50:39.791Z,1184.00
2022-10-30T09:51:37.959Z,1176.00
2022-10-30T09:52:38.885Z,1148.00
2022-10-30T09:53:37.926Z,1116.00
2022-10-30T09:54:37.929Z,1092.00
2022-10-30T09:55:37.906Z,1096.00
2022-10-30T09:56:37.876Z,1148.00
2022-10-30T09:57:37.977Z,1144.00
2022-10-30T09:58:37.905Z,1152.00
2022-10-30T09:59:37.850Z,1160.00
2022-10-30T10:00:37.844Z,1172.00
2022-10-30T10:01:37.963Z,1192.00
2022-10-30T10:02:37.975Z,1196.00
2022-10-30T10:03:37.847Z,1200.00
2022-10-30T10:04:37.795Z,1216.00
2022-10-30T10:05:37.788Z,1236.00
2022-10-30T10:06:37.772Z,1264.00
2022-10-30T10:07:37.803Z,1284.00
2022-10-30T10:08:37.759Z,1300.00
2022-10-30T10:09:37.840Z,1316.00
2022-10-30T10:10:37.737Z,1348.00
2022-10-30T10:11:37.709Z,1380.00
2022-10-30T10:12:37.722Z,1428.00
2022-10-30T10:13:37.705Z,1472.00
2022-10-30T10:14:37.790Z,1532.00
2022-10-30T10:15:38.036Z,1580.00
2022-10-30T10:16:37.669Z,1564.00
2022-10-30T10:17:37.652Z,1564.00
2022-10-30T10:18:37.646Z,1500.00
2022-10-30T10:19:37.630Z,1456.00
2022-10-30T10:20:37.657Z,1420.00
2022-10-30T10:21:37.604Z,1396.00
2022-10-30T10:22:37.624Z,1396.00
2022-10-30T10:23:37.594Z,1408.00
2022-10-30T10:24:37.567Z,1424.00
2022-10-30T10:25:37.563Z,1448.00
2022-10-30T10:26:37.577Z,1476.00
2022-10-30T10:27:37.527Z,1492.00
2022-10-30T10:28:37.534Z,1496.00
2022-10-30T10:29:37.582Z,1492.00
2022-10-30T10:30:37.508Z,1472.00
2022-10-30T10:31:37.541Z,1448.00
2022-10-30T10:32:37.494Z,1436.00
2022-10-30T10:33:37.493Z,1428.00
2022-10-30T10:34:37.472Z,1428.00
2022-10-30T10:35:37.483Z,1436.00
2022-10-30T10:36:37.433Z,1468.00
2022-10-30T10:37:37.461Z,1496.00
2022-10-30T10:38:37.405Z,1528.00
2022-10-30T10:39:37.442Z,1556.00
2022-10-30T10:40:37.464Z,1596.00
2022-10-30T10:41:37.447Z,1636.00
2022-10-30T10:42:38.851Z,1668.00
2022-10-30T10:43:37.357Z,1676.00
2022-10-30T10:44:42.620Z,1700.00
2022-10-30T10:45:37.342Z,1724.00
2022-10-30T10:46:37.345Z,1716.00
2022-10-30T10:47:37.372Z,1732.00
2022-10-30T10:48:37.300Z,1740.00
2022-10-30T10:49:40.012Z,1748.00
2022-10-30T10:50:37.290Z,1764.00
2022-10-30T10:51:38.230Z,1776.00
2022-10-30T10:52:37.317Z,1800.00
2022-10-30T10:53:37.239Z,1836.00
2022-10-30T10:54:38.216Z,1852.00
2022-10-30T10:55:37.216Z,1848.00
2022-10-30T10:56:38.210Z,1828.00
2022-10-30T10:57:37.206Z,1892.00
2022-10-30T10:58:37.249Z,1904.00
2022-10-30T10:59:37.203Z,1912.00
2022-10-30T11:00:37.190Z,1908.00
2022-10-30T11:01:37.291Z,1896.00
2022-10-30T11:02:37.271Z,1888.00
2022-10-30T11:03:37.129Z,1868.00
2022-10-30T11:04:37.157Z,1832.00
2022-10-30T11:05:37.109Z,1812.00
2022-10-30T11:06:37.144Z,1808.00
2022-10-30T11:07:37.183Z,1780.00
2022-10-30T11:08:37.135Z,1760.00
2022-10-30T11:09:37.071Z,1764.00
2022-10-30T11:10:37.049Z,1780.00
2022-10-30T11:11:37.057Z,1804.00
2022-10-30T11:12:37.725Z,1772.00
2022-10-30T11:13:37.018Z,1748.00
2022-10-30T11:14:37.023Z,1760.00
2022-10-30T11:15:37.003Z,1828.00
2022-10-30T11:16:37.028Z,1844.00
2022-10-30T11:17:37.667Z,1904.00
2022-10-30T11:18:36.966Z,1952.00
2022-10-30T11:19:36.977Z,2032.00
2022-10-30T11:20:36.968Z,2088.00
2022-10-30T11:21:36.970Z,2128.00
2022-10-30T11:22:36.955Z,2144.00
2022-10-30T11:23:36.948Z,2164.00
2022-10-30T11:24:36.921Z,2176.00
2022-10-30T11:25:36.917Z,2156.00
2022-10-30T11:26:36.878Z,2144.00
2022-10-30T11:27:36.879Z,2200.00
2022-10-30T11:28:36.875Z,2216.00
2022-10-30T11:29:36.885Z,2200.00
2022-10-30T11:30:36.868Z,2144.00
2022-10-30T11:31:37.814Z,2100.00
2022-10-30T11:32:36.933Z,2076.00
2022-10-30T11:33:36.832Z,2100.00
2022-10-30T11:34:37.318Z,2124.00
2022-10-30T11:35:36.771Z,2152.00
2022-10-30T11:36:36.776Z,2200.00
2022-10-30T11:37:36.746Z,2136.00
2022-10-30T11:38:36.733Z,2140.00
2022-10-30T11:39:36.944Z,2128.00
2022-10-30T11:40:37.564Z,2124.00
2022-10-30T11:41:36.996Z,2116.00
2022-10-30T11:42:36.714Z,2168.00
2022-10-30T11:43:36.685Z,2160.00
2022-10-30T11:44:36.683Z,2144.00
2022-10-30T11:45:36.753Z,2128.00
2022-10-30T11:46:36.651Z,2124.00
2022-10-30T11:47:36.653Z,2132.00
2022-10-30T11:48:37.248Z,2120.00
2022-10-30T11:49:36.618Z,2168.00
2022-10-30T11:50:36.607Z,2108.00
2022-10-30T11:51:36.689Z,2076.00
2022-10-30T11:52:37.541Z,2056.00
2022-10-30T11:53:36.630Z,2096.00
2022-10-30T11:54:36.566Z,2120.00
2022-10-30T11:55:36.556Z,2096.00
2022-10-30T11:56:36.594Z,2080.00
2022-10-30T11:57:36.770Z,2100.00
2022-10-30T11:58:36.529Z,2144.00
2022-10-30T11:59:36.532Z,2200.00
2022-10-30T12:00:36.497Z,2276.00
2022-10-30T12:01:36.550Z,2388.00
2022-10-30T12:03:36.513Z,2968.00
2022-10-30T12:04:36.487Z,4668.00
2022-10-30T12:05:36.565Z,6364.00
2022-10-30T12:06:36.718Z,4724.00
2022-10-30T12:07:36.439Z,3148.00
2022-10-30T12:08:36.547Z,2948.00
2022-10-30T12:09:36.495Z,2876.00
2022-10-30T12:10:36.393Z,3012.00
2022-10-30T12:11:36.430Z,3024.00
2022-10-30T12:12:36.458Z,3120.00
2022-10-30T12:13:38.022Z,3096.00
2022-10-30T12:14:36.426Z,3244.00
2022-10-30T12:15:36.336Z,4460.00
2022-10-30T12:16:36.326Z,6424.00
2022-10-30T12:17:36.428Z,5140.00
2022-10-30T12:18:37.790Z,4916.00
2022-10-30T12:19:36.340Z,4596.00
2022-10-30T12:20:36.277Z,4068.00
2022-10-30T12:21:36.408Z,4224.00
2022-10-30T12:22:36.358Z,4544.00
2022-10-30T12:23:36.229Z,5772.00
2022-10-30T12:24:36.253Z,6940.00
2022-10-30T12:25:36.469Z,6020.00
2022-10-30T12:26:36.250Z,5640.00
2022-10-30T12:27:36.199Z,5412.00
2022-10-30T12:28:36.267Z,4580.00
2022-10-30T12:30:02.850Z,3804.00
2022-10-30T12:30:37.248Z,3740.00
2022-10-30T12:31:36.207Z,3888.00
2022-10-30T12:32:39.628Z,4272.00
2022-10-30T12:33:36.241Z,4752.00
2022-10-30T12:34:36.138Z,4124.00
2022-10-30T12:35:36.127Z,4100.00
2022-10-30T12:36:36.161Z,4396.00
2022-10-30T12:37:36.154Z,4208.00
2022-10-30T12:38:36.157Z,4588.00
2022-10-30T12:39:36.134Z,5676.00
2022-10-30T12:40:36.113Z,6364.00
2022-10-30T12:41:36.211Z,5656.00
2022-10-30T12:42:37.534Z,5688.00
2022-10-30T12:43:36.042Z,5456.00
2022-10-30T12:44:36.060Z,4328.00
2022-10-30T12:45:36.005Z,3708.00
2022-10-30T12:46:36.260Z,3600.00